createdAt,value
2019-03-04T00:02:21.358Z,40.93
2019-03-04T00:05:24.992Z,42.83
2019-03-04T00:08:28.641Z,38.80
2019-03-04T00:11:32.778Z,37.50
2019-03-04T00:14:36.670Z,37.37
2019-03-04T00:17:40.255Z,36.87
2019-03-04T00:20:44.125Z,37.57
2019-03-04T00:23:47.762Z,35.00
2019-03-04T00:26:51.325Z,36.97
2019-03-04T00:29:55.201Z,32.57
2019-03-04T00:32:59.367Z,32.67
2019-03-04T00:36:02.938Z,32.10
2019-03-04T00:39:10.330Z,31.07
2019-03-04T00:42:14.120Z,30.57
2019-03-04T00:45:18.040Z,29.53
2019-03-04T00:48:21.611Z,30.50
2019-03-04T00:51:25.222Z,29.07
2019-03-04T00:54:29.070Z,28.50
2019-03-04T00:57:32.637Z,28.70
2019-03-04T01:00:36.206Z,27.10
2019-03-04T01:03:39.782Z,26.37
2019-03-04T01:06:43.347Z,25.97
2019-03-04T01:09:47.196Z,24.97
2019-03-04T01:12:50.762Z,24.70
2019-03-04T01:15:54.336Z,24.13
2019-03-04T01:18:57.923Z,23.90
2019-03-04T01:22:01.489Z,22.60
2019-03-04T01:25:06.799Z,22.37
2019-03-04T01:28:10.642Z,22.53
2019-03-04T01:31:14.215Z,21.77
2019-03-04T01:34:17.794Z,20.23
2019-03-04T01:37:21.367Z,20.10
2019-03-04T01:40:25.114Z,20.67
2019-03-04T01:43:28.707Z,19.97
2019-03-04T01:46:32.285Z,18.97
2019-03-04T01:49:35.847Z,18.63
2019-03-04T01:52:39.800Z,19.30
2019-03-04T01:55:43.460Z,18.57
2019-03-04T01:58:47.295Z,18.13
2019-03-04T02:01:51.111Z,17.93
2019-03-04T02:04:54.675Z,18.07
2019-03-04T02:07:58.259Z,17.13
2019-03-04T02:11:02.149Z,16.47
2019-03-04T02:14:05.871Z,16.80
2019-03-04T02:17:09.458Z,16.03
2019-03-04T02:20:14.123Z,16.07
2019-03-04T02:23:17.747Z,15.43
2019-03-04T02:26:27.637Z,14.80
2019-03-04T02:29:31.190Z,14.80
2019-03-04T02:32:35.041Z,14.30
2019-03-04T02:35:39.160Z,13.67
2019-03-04T02:38:43.072Z,13.37
2019-03-04T02:41:47.114Z,13.37
2019-03-04T02:44:50.692Z,12.50
2019-03-04T02:47:54.261Z,12.77
2019-03-04T02:50:57.840Z,12.23
2019-03-04T02:54:01.422Z,12.43
2019-03-04T02:57:05.426Z,12.23
2019-03-04T03:00:10.007Z,11.23
2019-03-04T03:03:13.575Z,12.43
2019-03-04T03:06:17.154Z,10.30
2019-03-04T03:09:21.029Z,11.53
2019-03-04T03:12:24.625Z,10.93
2019-03-04T03:15:28.462Z,10.80
2019-03-04T03:18:32.041Z,10.17
2019-03-04T03:21:35.945Z,10.73
2019-03-04T03:24:39.519Z,10.27
2019-03-04T03:27:43.286Z,10.37
2019-03-04T03:30:46.851Z,9.97
2019-03-04T03:33:50.428Z,9.50
2019-03-04T03:36:53.995Z,9.47
2019-03-04T03:39:57.560Z,9.30
2019-03-04T03:43:01.152Z,8.97
2019-03-04T03:46:04.770Z,8.33
2019-03-04T03:49:08.341Z,9.20
2019-03-04T03:52:11.904Z,9.07
2019-03-04T03:55:15.739Z,9.00
2019-03-04T03:58:19.309Z,8.70
2019-03-04T04:01:23.471Z,8.13
2019-03-04T04:04:27.198Z,7.83
2019-03-04T04:07:31.072Z,7.77
2019-03-04T04:10:35.002Z,7.60
2019-03-04T04:13:38.561Z,7.67
2019-03-04T04:16:42.148Z,7.33
2019-03-04T04:19:46.126Z,7.93
2019-03-04T04:22:50.025Z,7.47
2019-03-04T04:25:53.593Z,7.27
2019-03-04T04:29:03.097Z,7.47
2019-03-04T04:32:06.972Z,7.33
2019-03-04T04:35:10.618Z,7.63
2019-03-04T04:38:14.482Z,6.63
2019-03-04T04:41:18.315Z,6.70
2019-03-04T04:44:22.227Z,6.07
2019-03-04T04:47:25.836Z,6.13
2019-03-04T04:50:29.580Z,6.60
2019-03-04T04:53:33.147Z,5.97
2019-03-04T04:56:36.813Z,6.07
2019-03-04T04:59:40.369Z,6.00
2019-03-04T05:02:43.959Z,5.50
2019-03-04T05:05:47.603Z,5.97
2019-03-04T05:08:51.164Z,5.67
2019-03-04T05:11:55.095Z,5.47
2019-03-04T05:14:58.959Z,5.57
2019-03-04T05:18:02.598Z,69.93
2019-03-04T05:21:06.178Z,385.47
2019-03-04T05:24:10.157Z,169.67
2019-03-04T05:27:13.689Z,151.37
2019-03-04T05:30:18.579Z,87.90
2019-03-04T05:33:22.185Z,91.13
2019-03-04T05:36:25.755Z,106.53
2019-03-04T05:39:29.341Z,475.43
2019-03-04T05:42:33.460Z,414.80
2019-03-04T05:45:37.054Z,393.67
2019-03-04T05:48:41.011Z,341.47
2019-03-04T05:51:44.873Z,203.37
2019-03-04T05:54:48.824Z,205.23
2019-03-04T05:57:52.409Z,217.73
2019-03-04T06:01:18.160Z,226.33
2019-03-04T06:04:21.754Z,150.27
2019-03-04T06:07:38.296Z,144.77
2019-03-04T06:10:42.153Z,140.77
2019-03-04T06:13:46.112Z,135.80
2019-03-04T06:16:49.784Z,131.27
2019-03-04T06:19:53.371Z,127.43
2019-03-04T06:22:57.269Z,128.60
2019-03-04T06:26:00.838Z,123.70
2019-03-04T06:29:04.418Z,120.97
2019-03-04T06:32:08.323Z,123.73
2019-03-04T06:35:12.435Z,113.80
2019-03-04T06:38:16.043Z,108.97
2019-03-04T06:41:19.918Z,107.70
2019-03-04T06:44:23.863Z,108.00
2019-03-04T06:47:27.949Z,104.93
2019-03-04T06:50:51.495Z,101.63
2019-03-04T06:54:14.384Z,101.37
2019-03-04T06:57:28.197Z,97.47
2019-03-04T07:01:02.686Z,95.23
2019-03-04T07:04:14.724Z,97.93
2019-03-04T07:07:18.617Z,91.23
2019-03-04T07:10:22.481Z,93.50
2019-03-04T07:13:26.409Z,88.37
2019-03-04T07:16:32.052Z,87.07
2019-03-04T07:19:36.943Z,86.57
2019-03-04T07:22:40.515Z,86.03
2019-03-04T07:25:44.103Z,81.47
2019-03-04T07:28:47.983Z,78.93
2019-03-04T07:31:51.578Z,78.77
2019-03-04T07:34:55.436Z,78.27
2019-03-04T07:38:26.786Z,77.30
2019-03-04T07:41:32.413Z,71.77
2019-03-04T07:44:35.997Z,70.80
2019-03-04T07:47:39.678Z,69.63
2019-03-04T07:50:43.259Z,68.93
2019-03-04T07:53:47.149Z,70.23
2019-03-04T07:56:50.732Z,69.37
2019-03-04T07:59:54.607Z,65.40
2019-03-04T08:02:58.527Z,65.20
2019-03-04T08:06:02.373Z,63.37
2019-03-04T08:09:56.412Z,63.17
2019-03-04T08:13:39.232Z,60.30
2019-03-04T08:16:43.142Z,60.43
2019-03-04T08:19:47.082Z,58.47
2019-03-04T08:22:50.738Z,56.93
2019-03-04T08:25:56.280Z,55.60
2019-03-04T08:28:59.842Z,56.67
2019-03-04T08:32:03.436Z,54.70
2019-03-04T08:35:07.426Z,53.20
2019-03-04T08:38:11.022Z,51.13
2019-03-04T08:41:14.914Z,51.40
2019-03-04T08:44:18.753Z,49.77
2019-03-04T08:47:22.330Z,48.30
2019-03-04T08:50:28.348Z,46.40
2019-03-04T08:53:32.246Z,44.40
2019-03-04T08:56:36.121Z,45.77
2019-03-04T08:59:39.685Z,42.53
2019-03-04T09:02:43.277Z,40.90
2019-03-04T09:05:47.231Z,41.33
2019-03-04T09:08:50.880Z,37.30
2019-03-04T09:11:54.460Z,39.43
2019-03-04T09:14:58.048Z,38.17
2019-03-04T09:18:01.637Z,36.90
2019-03-04T09:21:05.510Z,36.33
2019-03-04T09:24:09.658Z,33.93
2019-03-04T09:27:13.491Z,31.97
2019-03-04T09:30:17.684Z,33.33
2019-03-04T09:33:21.288Z,34.47
2019-03-04T09:36:25.542Z,33.13
2019-03-04T09:39:29.112Z,32.17
2019-03-04T09:42:33.361Z,31.70
2019-03-04T09:45:39.093Z,29.73
2019-03-04T09:48:42.902Z,29.20
2019-03-04T09:51:46.474Z,28.77
2019-03-04T09:54:50.428Z,29.13
2019-03-04T09:57:54.009Z,27.77
2019-03-04T10:01:11.609Z,28.50
2019-03-04T10:04:44.656Z,26.23
2019-03-04T10:08:21.717Z,26.90
2019-03-04T10:12:04.673Z,26.50
2019-03-04T10:15:49.971Z,24.13
2019-03-04T10:19:47.121Z,24.80
2019-03-04T10:23:21.057Z,23.50
2019-03-04T10:26:51.047Z,22.73
2019-03-04T10:30:03.282Z,21.90
2019-03-04T10:33:33.127Z,20.60
2019-03-04T10:36:56.803Z,20.73
2019-03-04T10:40:43.820Z,19.97
2019-03-04T10:44:37.871Z,20.80
2019-03-04T10:47:39.793Z,19.13
2019-03-04T10:50:43.359Z,19.07
2019-03-04T10:53:46.934Z,17.77
2019-03-04T10:56:50.675Z,17.73
2019-03-04T10:59:54.538Z,18.20
2019-03-04T11:02:58.473Z,17.33
2019-03-04T11:06:02.301Z,17.20
2019-03-04T11:09:07.768Z,17.27
2019-03-04T11:12:11.341Z,15.07
2019-03-04T11:15:19.795Z,15.90
2019-03-04T11:18:23.426Z,15.33
2019-03-04T11:21:27.290Z,14.10
2019-03-04T11:24:30.870Z,14.17
2019-03-04T11:27:34.444Z,14.03
2019-03-04T11:30:38.275Z,13.20
2019-03-04T11:33:42.186Z,13.93
2019-03-04T11:36:45.831Z,13.13
2019-03-04T11:39:54.928Z,13.43
2019-03-04T11:42:58.523Z,12.37
2019-03-04T11:46:02.196Z,11.90
2019-03-04T11:49:05.777Z,12.40
2019-03-04T11:52:09.854Z,11.50
2019-03-04T11:55:13.629Z,10.60
2019-03-04T11:58:17.199Z,11.70
2019-03-04T12:01:26.804Z,10.97
2019-03-04T12:04:30.382Z,10.83
2019-03-04T12:07:33.948Z,10.00
2019-03-04T12:10:38.137Z,10.17
2019-03-04T12:13:41.702Z,9.97
2019-03-04T12:16:45.271Z,9.97
2019-03-04T12:19:49.136Z,9.30
2019-03-04T12:22:52.697Z,9.50
2019-03-04T12:25:56.275Z,8.53
2019-03-04T12:29:14.153Z,8.27
2019-03-04T12:32:32.679Z,8.63
2019-03-04T12:35:43.969Z,8.03
2019-03-04T12:38:51.743Z,8.27
2019-03-04T12:42:08.888Z,7.97
2019-03-04T12:45:33.714Z,8.87
2019-03-04T12:48:42.749Z,7.67
2019-03-04T12:52:02.956Z,7.47
2019-03-04T12:55:08.793Z,8.43
2019-03-04T12:58:15.369Z,7.37
2019-03-04T13:01:27.936Z,7.63
2019-03-04T13:04:48.424Z,7.13
2019-03-04T13:07:52.002Z,6.73
2019-03-04T13:10:55.598Z,6.83
2019-03-04T13:13:59.244Z,6.63
2019-03-04T13:17:03.446Z,6.20
2019-03-04T13:20:08.365Z,6.53
2019-03-04T13:23:11.944Z,5.90
2019-03-04T13:26:15.544Z,6.07
2019-03-04T13:29:19.114Z,5.90
2019-03-04T13:32:22.703Z,5.90
2019-03-04T13:35:26.476Z,6.00
2019-03-04T13:38:30.071Z,5.83
2019-03-04T13:41:35.295Z,5.27
2019-03-04T13:44:38.862Z,5.50
2019-03-04T13:47:42.583Z,5.07
2019-03-04T13:50:46.528Z,4.93
2019-03-04T13:53:50.104Z,4.90
2019-03-04T13:56:54.312Z,5.33
2019-03-04T13:59:57.895Z,4.83
2019-03-04T14:03:09.214Z,4.57
2019-03-04T14:06:27.395Z,4.53
2019-03-04T14:09:31.257Z,4.50
2019-03-04T14:12:39.719Z,4.23
2019-03-04T14:15:43.426Z,4.30
2019-03-04T14:18:47.012Z,4.40
2019-03-04T14:21:50.898Z,3.43
2019-03-04T14:24:54.476Z,3.97
2019-03-04T14:27:58.346Z,4.03
2019-03-04T14:31:02.235Z,4.20
2019-03-04T14:34:05.824Z,3.90
2019-03-04T14:37:09.487Z,3.70
2019-03-04T14:40:14.508Z,3.53
2019-03-04T14:43:18.612Z,3.63
2019-03-04T14:46:25.982Z,3.40
2019-03-04T14:49:29.553Z,3.47
2019-03-04T14:52:33.612Z,3.43
2019-03-04T14:55:37.371Z,3.17
2019-03-04T14:58:41.184Z,3.00
2019-03-04T15:01:44.870Z,3.20
2019-03-04T15:04:48.448Z,2.97
2019-03-04T15:07:52.639Z,3.07
2019-03-04T15:10:56.480Z,2.83
2019-03-04T15:14:00.060Z,3.00
2019-03-04T15:17:03.810Z,2.93
2019-03-04T15:20:09.808Z,3.20
2019-03-04T15:23:13.843Z,2.60
2019-03-04T15:26:17.929Z,2.77
2019-03-04T15:29:21.499Z,2.90
2019-03-04T15:32:25.682Z,2.50
2019-03-04T15:35:29.253Z,2.97
2019-03-04T15:38:33.375Z,2.30
2019-03-04T15:41:40.328Z,2.47
2019-03-04T15:44:42.963Z,2.43
2019-03-04T15:47:46.607Z,2.40
2019-03-04T15:50:50.182Z,2.10
2019-03-04T15:53:53.773Z,1.87
2019-03-04T15:57:02.327Z,1.63
2019-03-04T16:00:07.571Z,41.47
2019-03-04T16:03:11.553Z,8.77
2019-03-04T16:06:15.154Z,7.40
2019-03-04T16:09:20.631Z,7.17
2019-03-04T16:12:25.260Z,6.20
2019-03-04T16:15:29.079Z,5.40
2019-03-04T16:18:32.649Z,5.23
2019-03-04T16:21:36.485Z,5.37
2019-03-04T16:24:40.133Z,5.37
2019-03-04T16:27:43.703Z,4.73
2019-03-04T16:30:49.456Z,4.60
2019-03-04T16:33:53.623Z,4.20
2019-03-04T16:36:57.194Z,4.33
2019-03-04T16:40:01.363Z,4.20
2019-03-04T16:43:04.922Z,3.57
2019-03-04T16:46:08.994Z,3.80
2019-03-04T16:49:12.642Z,3.83
2019-03-04T16:52:16.217Z,3.60
2019-03-04T16:55:19.923Z,3.33
2019-03-04T16:58:23.501Z,3.70
2019-03-04T17:01:27.136Z,3.30
2019-03-04T17:04:31.008Z,3.60
2019-03-04T17:07:34.589Z,3.60
2019-03-04T17:10:38.429Z,3.27
2019-03-04T17:13:42.045Z,3.10
2019-03-04T17:16:45.767Z,3.30
2019-03-04T17:19:49.370Z,3.30
2019-03-04T17:22:53.905Z,3.20
2019-03-04T17:25:57.722Z,2.60
2019-03-04T17:29:01.548Z,3.50
2019-03-04T17:32:07.799Z,3.00
2019-03-04T17:35:12.352Z,2.50
2019-03-04T17:38:21.808Z,2.50
2019-03-04T17:41:42.244Z,2.83
2019-03-04T17:44:53.577Z,2.70
2019-03-04T17:48:09.893Z,2.97
2019-03-04T17:51:29.192Z,2.50
2019-03-04T17:54:41.203Z,2.50
2019-03-04T17:57:54.224Z,2.70
2019-03-04T18:01:04.186Z,2.43
2019-03-04T18:04:15.733Z,2.63
2019-03-04T18:07:34.352Z,2.40
2019-03-04T18:10:49.434Z,2.57
2019-03-04T18:14:02.803Z,2.97
2019-03-04T18:17:14.953Z,2.57
2019-03-04T18:20:34.656Z,2.40
2019-03-04T18:23:43.290Z,2.30
2019-03-04T18:27:12.630Z,2.37
2019-03-04T18:30:42.762Z,2.60
2019-03-04T18:34:20.949Z,2.77
2019-03-04T18:38:06.340Z,2.93
2019-03-04T18:41:41.736Z,2.60
2019-03-04T18:45:08.626Z,2.40
2019-03-04T18:48:51.565Z,2.47
2019-03-04T18:52:00.075Z,5.57
2019-03-04T18:55:08.218Z,3.67
2019-03-04T18:58:19.823Z,4.10
2019-03-04T19:01:35.013Z,3.90
2019-03-04T19:04:47.298Z,3.00
2019-03-04T19:07:54.675Z,3.10
2019-03-04T19:11:15.386Z,2.70
2019-03-04T19:14:34.837Z,5.17
2019-03-04T19:17:51.633Z,7.37
2019-03-04T19:21:02.859Z,4.43
2019-03-04T19:24:11.145Z,5.40
2019-03-04T19:27:28.327Z,4.43
2019-03-04T19:30:41.963Z,4.40
2019-03-04T19:33:58.703Z,4.50
2019-03-04T19:37:18.706Z,4.47
2019-03-04T19:40:32.399Z,4.80
2019-03-04T19:43:45.012Z,4.47
2019-03-04T19:46:57.346Z,4.30
2019-03-04T19:50:13.123Z,4.43
2019-03-04T19:53:25.776Z,4.23
2019-03-04T19:56:46.992Z,4.20
2019-03-04T20:00:07.180Z,4.40
2019-03-04T20:03:19.770Z,3.87
2019-03-04T20:06:36.082Z,4.60
2019-03-04T20:09:49.301Z,3.97
2019-03-04T20:12:58.151Z,4.07
2019-03-04T20:16:01.840Z,4.33
2019-03-04T20:19:05.581Z,3.77
2019-03-04T20:22:09.396Z,4.17
2019-03-04T20:25:13.253Z,3.83
2019-03-04T20:28:17.059Z,3.90
2019-03-04T20:31:20.809Z,3.47
2019-03-04T20:34:24.639Z,3.77
2019-03-04T20:37:28.574Z,4.07
2019-03-04T20:40:32.254Z,3.80
2019-03-04T20:43:36.016Z,3.90
2019-03-04T20:46:52.649Z,4.03
2019-03-04T20:50:05.913Z,3.60
2019-03-04T20:53:22.375Z,3.27
2019-03-04T20:56:49.015Z,3.40
2019-03-04T20:59:58.542Z,3.07
2019-03-04T21:03:13.961Z,3.60
2019-03-04T21:06:31.232Z,2.80
2019-03-04T21:09:43.728Z,2.63
2019-03-04T21:12:54.188Z,6.40
2019-03-04T21:16:03.345Z,8.70
2019-03-04T21:19:15.292Z,7.40
2019-03-04T21:22:19.479Z,6.33
2019-03-04T21:25:41.658Z,6.20
2019-03-04T21:29:02.538Z,5.53
2019-03-04T21:32:51.617Z,5.73
2019-03-04T21:36:33.759Z,5.50
2019-03-04T21:39:37.725Z,5.40
2019-03-04T21:42:58.410Z,4.63
2019-03-04T21:46:46.728Z,4.83
2019-03-04T21:49:53.040Z,4.97
2019-03-04T21:53:07.611Z,4.90
2019-03-04T21:56:34.686Z,6.80
2019-03-04T21:59:38.544Z,7.73
2019-03-04T22:02:48.946Z,5.40
2019-03-04T22:05:52.651Z,4.60
2019-03-04T22:08:56.270Z,5.13
2019-03-04T22:12:00.142Z,5.27
2019-03-04T22:15:04.195Z,8.77
2019-03-04T22:18:08.237Z,29.30
2019-03-04T22:21:16.752Z,6.80
2019-03-04T22:24:18.064Z,6.40
2019-03-04T22:27:21.687Z,6.33
2019-03-04T22:30:25.275Z,5.33
2019-03-04T22:33:28.901Z,5.53
2019-03-04T22:36:32.511Z,6.10
2019-03-04T22:39:36.168Z,5.50
2019-03-04T22:42:39.839Z,5.47
2019-03-04T22:45:43.503Z,5.83
2019-03-04T22:48:47.084Z,5.40
2019-03-04T22:51:50.755Z,5.50
2019-03-04T22:54:54.439Z,57.43
2019-03-04T22:57:58.205Z,15.37
2019-03-04T23:01:33.659Z,17.30
2019-03-04T23:04:52.424Z,14.67
2019-03-04T23:07:56.588Z,15.03
2019-03-04T23:11:01.003Z,15.93
2019-03-04T23:14:14.915Z,15.57
2019-03-04T23:17:18.524Z,14.70
2019-03-04T23:20:22.114Z,14.33
2019-03-04T23:23:25.824Z,12.97
2019-03-04T23:26:29.443Z,13.90
2019-03-04T23:29:33.016Z,12.60
2019-03-04T23:32:36.596Z,12.13
2019-03-04T23:35:40.169Z,12.30
2019-03-04T23:38:43.825Z,12.23
2019-03-04T23:41:47.409Z,12.03
2019-03-04T23:44:51.008Z,12.03
2019-03-04T23:47:54.577Z,11.50
2019-03-04T23:50:59.872Z,12.40
2019-03-04T23:54:03.819Z,11.57
2019-03-04T23:57:07.397Z,10.27
